sensor_id;sensor_type;location;lat;lon;timestamp;P1;durP1;ratioP1;P2;durP2;ratioP2
47225;SDS011;32965;64.142;-21.912;2022-11-25T00:01:10;0.40;;;0.10;;
47225;SDS011;32965;64.142;-21.912;2022-11-25T00:03:38;1.85;;;0.05;;
47225;SDS011;32965;64.142;-21.912;2022-11-25T00:06:23;0.30;;;0.00;;
47225;SDS011;32965;64.142;-21.912;2022-11-25T00:08:55;0.40;;;0.00;;
47225;SDS011;32965;64.142;-21.912;2022-11-25T00:11:22;0.13;;;0.10;;
47225;SDS011;32965;64.142;-21.912;2022-11-25T00:13:48;0.63;;;0.20;;
47225;SDS011;32965;64.142;-21.912;2022-11-25T00:16:15;0.47;;;0.15;;
47225;SDS011;32965;64.142;-21.912;2022-11-25T00:18:43;0.30;;;0.15;;
47225;SDS011;32965;64.142;-21.912;2022-11-25T00:21:14;3.17;;;0.32;;
47225;SDS011;32965;64.142;-21.912;2022-11-25T00:23:41;0.20;;;0.10;;
47225;SDS011;32965;64.142;-21.912;2022-11-25T00:26:14;0.20;;;0.10;;
47225;SDS011;32965;64.142;-21.912;2022-11-25T00:28:44;1.50;;;0.10;;
47225;SDS011;32965;64.142;-21.912;2022-11-25T00:31:12;0.00;;;0.00;;
47225;SDS011;32965;64.142;-21.912;2022-11-25T00:33:38;0.95;;;0.10;;
47225;SDS011;32965;64.142;-21.912;2022-11-25T00:36:05;0.60;;;0.10;;
47225;SDS011;32965;64.142;-21.912;2022-11-25T00:38:34;0.32;;;0.03;;
47225;SDS011;32965;64.142;-21.912;2022-11-25T00:41:00;0.28;;;0.17;;
47225;SDS011;32965;64.142;-21.912;2022-11-25T00:43:44;0.77;;;0.10;;
47225;SDS011;32965;64.142;-21.912;2022-11-25T00:46:28;1.23;;;0.10;;
47225;SDS011;32965;64.142;-21.912;2022-11-25T00:48:53;0.68;;;0.10;;
47225;SDS011;32965;64.142;-21.912;2022-11-25T00:51:19;0.45;;;0.10;;
47225;SDS011;32965;64.142;-21.912;2022-11-25T00:53:45;0.55;;;0.08;;
47225;SDS011;32965;64.142;-21.912;2022-11-25T00:56:10;0.03;;;0.00;;
47225;SDS011;32965;64.142;-21.912;2022-11-25T00:58:39;0.65;;;0.00;;
47225;SDS011;32965;64.142;-21.912;2022-11-25T01:01:06;0.30;;;0.00;;
47225;SDS011;32965;64.142;-21.912;2022-11-25T01:03:32;0.38;;;0.10;;
47225;SDS011;32965;64.142;-21.912;2022-11-25T01:06:01;0.30;;;0.20;;
47225;SDS011;32965;64.142;-21.912;2022-11-25T01:08:34;0.20;;;0.00;;
47225;SDS011;32965;64.142;-21.912;2022-11-25T01:11:03;1.05;;;0.20;;
47225;SDS011;32965;64.142;-21.912;2022-11-25T01:13:31;0.52;;;0.10;;
47225;SDS011;32965;64.142;-21.912;2022-11-25T01:15:59;1.17;;;0.20;;
47225;SDS011;32965;64.142;-21.912;2022-11-25T01:18:29;0.10;;;0.10;;
47225;SDS011;32965;64.142;-21.912;2022-11-25T01:21:03;0.65;;;0.10;;
47225;SDS011;32965;64.142;-21.912;2022-11-25T01:23:30;0.95;;;0.32;;
47225;SDS011;32965;64.142;-21.912;2022-11-25T01:25:56;0.30;;;0.10;;
47225;SDS011;32965;64.142;-21.912;2022-11-25T01:28:21;0.85;;;0.00;;
47225;SDS011;32965;64.142;-21.912;2022-11-25T01:30:57;0.80;;;0.08;;
47225;SDS011;32965;64.142;-21.912;2022-11-25T01:33:24;0.30;;;0.10;;
47225;SDS011;32965;64.142;-21.912;2022-11-25T01:35:49;0.65;;;0.10;;
47225;SDS011;32965;64.142;-21.912;2022-11-25T01:38:15;1.27;;;0.20;;
47225;SDS011;32965;64.142;-21.912;2022-11-25T01:40:41;1.52;;;0.10;;
47225;SDS011;32965;64.142;-21.912;2022-11-25T01:43:11;0.55;;;0.30;;
47225;SDS011;32965;64.142;-21.912;2022-11-25T01:45:38;0.25;;;0.15;;
47225;SDS011;32965;64.142;-21.912;2022-11-25T01:48:11;0.40;;;0.05;;
47225;SDS011;32965;64.142;-21.912;2022-11-25T01:50:43;0.20;;;0.00;;
47225;SDS011;32965;64.142;-21.912;2022-11-25T01:53:11;1.07;;;0.00;;
47225;SDS011;32965;64.142;-21.912;2022-11-25T01:58:17;0.25;;;0.00;;
47225;SDS011;32965;64.142;-21.912;2022-11-25T02:00:46;0.60;;;0.08;;
47225;SDS011;32965;64.142;-21.912;2022-11-25T02:03:22;0.10;;;0.10;;
47225;SDS011;32965;64.142;-21.912;2022-11-25T02:08:24;0.30;;;0.00;;
47225;SDS011;32965;64.142;-21.912;2022-11-25T02:10:52;0.10;;;0.00;;
47225;SDS011;32965;64.142;-21.912;2022-11-25T02:13:20;0.55;;;0.10;;
47225;SDS011;32965;64.142;-21.912;2022-11-25T02:15:47;1.17;;;0.10;;
47225;SDS011;32965;64.142;-21.912;2022-11-25T02:18:14;0.00;;;0.00;;
47225;SDS011;32965;64.142;-21.912;2022-11-25T02:20:40;0.10;;;0.00;;
47225;SDS011;32965;64.142;-21.912;2022-11-25T02:23:21;0.08;;;0.00;;
47225;SDS011;32965;64.142;-21.912;2022-11-25T02:26:06;0.00;;;0.00;;
47225;SDS011;32965;64.142;-21.912;2022-11-25T02:28:32;0.20;;;0.00;;
47225;SDS011;32965;64.142;-21.912;2022-11-25T02:30:58;0.70;;;0.03;;
47225;SDS011;32965;64.142;-21.912;2022-11-25T02:33:25;0.35;;;0.10;;
47225;SDS011;32965;64.142;-21.912;2022-11-25T02:35:53;1.17;;;0.10;;
47225;SDS011;32965;64.142;-21.912;2022-11-25T02:38:21;1.13;;;0.10;;
47225;SDS011;32965;64.142;-21.912;2022-11-25T02:40:54;1.92;;;0.20;;
47225;SDS011;32965;64.142;-21.912;2022-11-25T02:43:31;3.17;;;0.20;;
47225;SDS011;32965;64.142;-21.912;2022-11-25T02:46:01;0.52;;;0.00;;
47225;SDS011;32965;64.142;-21.912;2022-11-25T02:48:38;0.20;;;0.10;;
47225;SDS011;32965;64.142;-21.912;2022-11-25T02:51:05;0.85;;;0.10;;
47225;SDS011;32965;64.142;-21.912;2022-11-25T02:53:33;1.48;;;0.13;;
47225;SDS011;32965;64.142;-21.912;2022-11-25T02:55:58;0.50;;;0.10;;
47225;SDS011;32965;64.142;-21.912;2022-11-25T02:58:25;0.57;;;0.20;;
47225;SDS011;32965;64.142;-21.912;2022-11-25T03:00:51;0.85;;;0.10;;
47225;SDS011;32965;64.142;-21.912;2022-11-25T03:03:17;0.45;;;0.10;;
47225;SDS011;32965;64.142;-21.912;2022-11-25T03:05:43;1.25;;;0.20;;
47225;SDS011;32965;64.142;-21.912;2022-11-25T03:08:09;1.98;;;0.20;;
47225;SDS011;32965;64.142;-21.912;2022-11-25T03:10:36;1.17;;;0.10;;
47225;SDS011;32965;64.142;-21.912;2022-11-25T03:13:02;2.05;;;0.30;;
47225;SDS011;32965;64.142;-21.912;2022-11-25T03:15:28;1.25;;;0.13;;
47225;SDS011;32965;64.142;-21.912;2022-11-25T03:17:56;0.20;;;0.17;;
47225;SDS011;32965;64.142;-21.912;2022-11-25T03:20:21;3.20;;;0.20;;
47225;SDS011;32965;64.142;-21.912;2022-11-25T03:22:48;0.40;;;0.13;;
47225;SDS011;32965;64.142;-21.912;2022-11-25T03:25:14;0.60;;;0.03;;
47225;SDS011;32965;64.142;-21.912;2022-11-25T03:27:40;1.45;;;0.20;;
47225;SDS011;32965;64.142;-21.912;2022-11-25T03:30:07;1.35;;;0.00;;
47225;SDS011;32965;64.142;-21.912;2022-11-25T03:32:35;0.45;;;0.10;;
47225;SDS011;32965;64.142;-21.912;2022-11-25T03:35:01;1.85;;;0.20;;
47225;SDS011;32965;64.142;-21.912;2022-11-25T03:37:27;0.13;;;0.10;;
47225;SDS011;32965;64.142;-21.912;2022-11-25T03:39:52;0.82;;;0.20;;
47225;SDS011;32965;64.142;-21.912;2022-11-25T03:42:18;0.00;;;0.00;;
47225;SDS011;32965;64.142;-21.912;2022-11-25T03:44:44;0.20;;;0.10;;
47225;SDS011;32965;64.142;-21.912;2022-11-25T03:47:09;0.32;;;0.03;;
47225;SDS011;32965;64.142;-21.912;2022-11-25T03:49:35;0.45;;;0.00;;
47225;SDS011;32965;64.142;-21.912;2022-11-25T03:52:01;1.65;;;0.08;;
47225;SDS011;32965;64.142;-21.912;2022-11-25T03:54:27;0.20;;;0.05;;
47225;SDS011;32965;64.142;-21.912;2022-11-25T03:56:53;0.20;;;0.05;;
47225;SDS011;32965;64.142;-21.912;2022-11-25T03:59:18;0.25;;;0.10;;
47225;SDS011;32965;64.142;-21.912;2022-11-25T04:01:44;0.35;;;0.00;;
47225;SDS011;32965;64.142;-21.912;2022-11-25T04:04:10;0.70;;;0.00;;
47225;SDS011;32965;64.142;-21.912;2022-11-25T04:06:36;0.55;;;0.20;;
47225;SDS011;32965;64.142;-21.912;2022-11-25T04:09:03;0.38;;;0.10;;
47225;SDS011;32965;64.142;-21.912;2022-11-25T04:11:33;1.55;;;0.10;;
47225;SDS011;32965;64.142;-21.912;2022-11-25T04:14:17;0.20;;;0.00;;
47225;SDS011;32965;64.142;-21.912;2022-11-25T04:16:43;0.10;;;0.03;;
47225;SDS011;32965;64.142;-21.912;2022-11-25T04:19:09;0.85;;;0.00;;
47225;SDS011;32965;64.142;-21.912;2022-11-25T04:21:34;1.85;;;0.20;;
47225;SDS011;32965;64.142;-21.912;2022-11-25T04:24:00;0.30;;;0.10;;
47225;SDS011;32965;64.142;-21.912;2022-11-25T04:26:27;0.38;;;0.00;;
47225;SDS011;32965;64.142;-21.912;2022-11-25T04:28:53;2.10;;;0.10;;
47225;SDS011;32965;64.142;-21.912;2022-11-25T04:31:19;0.22;;;0.10;;
47225;SDS011;32965;64.142;-21.912;2022-11-25T04:33:44;0.50;;;0.50;;
47225;SDS011;32965;64.142;-21.912;2022-11-25T04:36:10;0.70;;;0.00;;
47225;SDS011;32965;64.142;-21.912;2022-11-25T04:38:36;1.88;;;0.52;;
47225;SDS011;32965;64.142;-21.912;2022-11-25T04:41:02;0.15;;;0.00;;
47225;SDS011;32965;64.142;-21.912;2022-11-25T04:43:27;0.73;;;0.38;;
47225;SDS011;32965;64.142;-21.912;2022-11-25T04:45:53;0.75;;;0.00;;
47225;SDS011;32965;64.142;-21.912;2022-11-25T04:48:19;0.22;;;0.00;;
47225;SDS011;32965;64.142;-21.912;2022-11-25T04:50:45;1.80;;;0.10;;
47225;SDS011;32965;64.142;-21.912;2022-11-25T04:53:11;0.88;;;0.10;;
47225;SDS011;32965;64.142;-21.912;2022-11-25T04:55:36;0.13;;;0.10;;
47225;SDS011;32965;64.142;-21.912;2022-11-25T04:58:02;0.10;;;0.00;;
47225;SDS011;32965;64.142;-21.912;2022-11-25T05:00:28;0.57;;;0.40;;
47225;SDS011;32965;64.142;-21.912;2022-11-25T05:02:54;0.08;;;0.00;;
47225;SDS011;32965;64.142;-21.912;2022-11-25T05:05:19;0.68;;;0.10;;
47225;SDS011;32965;64.142;-21.912;2022-11-25T05:07:45;0.30;;;0.00;;
47225;SDS011;32965;64.142;-21.912;2022-11-25T05:10:11;0.10;;;0.10;;
47225;SDS011;32965;64.142;-21.912;2022-11-25T05:12:37;0.15;;;0.00;;
47225;SDS011;32965;64.142;-21.912;2022-11-25T05:15:04;0.22;;;0.00;;
47225;SDS011;32965;64.142;-21.912;2022-11-25T05:17:30;0.93;;;0.10;;
47225;SDS011;32965;64.142;-21.912;2022-11-25T05:19:56;0.98;;;0.10;;
47225;SDS011;32965;64.142;-21.912;2022-11-25T05:22:23;0.22;;;0.10;;
47225;SDS011;32965;64.142;-21.912;2022-11-25T05:24:51;0.00;;;0.00;;
47225;SDS011;32965;64.142;-21.912;2022-11-25T05:27:16;1.02;;;0.20;;
47225;SDS011;32965;64.142;-21.912;2022-11-25T05:29:42;0.15;;;0.10;;
47225;SDS011;32965;64.142;-21.912;2022-11-25T05:32:08;0.20;;;0.00;;
47225;SDS011;32965;64.142;-21.912;2022-11-25T05:34:35;0.68;;;0.10;;
47225;SDS011;32965;64.142;-21.912;2022-11-25T05:37:01;1.17;;;0.20;;
47225;SDS011;32965;64.142;-21.912;2022-11-25T05:39:27;0.60;;;0.10;;
47225;SDS011;32965;64.142;-21.912;2022-11-25T05:41:53;0.80;;;0.03;;
47225;SDS011;32965;64.142;-21.912;2022-11-25T05:44:19;0.60;;;0.10;;
47225;SDS011;32965;64.142;-21.912;2022-11-25T05:46:45;0.35;;;0.10;;
47225;SDS011;32965;64.142;-21.912;2022-11-25T05:49:12;0.00;;;0.00;;
47225;SDS011;32965;64.142;-21.912;2022-11-25T05:51:39;0.60;;;0.17;;
47225;SDS011;32965;64.142;-21.912;2022-11-25T05:54:05;0.25;;;0.08;;
47225;SDS011;32965;64.142;-21.912;2022-11-25T05:56:31;0.20;;;0.20;;
47225;SDS011;32965;64.142;-21.912;2022-11-25T05:58:57;0.10;;;0.10;;
47225;SDS011;32965;64.142;-21.912;2022-11-25T06:01:23;0.63;;;0.10;;
47225;SDS011;32965;64.142;-21.912;2022-11-25T06:03:49;0.00;;;0.00;;
47225;SDS011;32965;64.142;-21.912;2022-11-25T06:06:15;0.00;;;0.00;;
47225;SDS011;32965;64.142;-21.912;2022-11-25T06:08:41;0.10;;;0.08;;
47225;SDS011;32965;64.142;-21.912;2022-11-25T06:11:08;0.80;;;0.10;;
47225;SDS011;32965;64.142;-21.912;2022-11-25T06:13:36;0.28;;;0.10;;
47225;SDS011;32965;64.142;-21.912;2022-11-25T06:16:35;0.98;;;0.10;;
47225;SDS011;32965;64.142;-21.912;2022-11-25T06:18:54;0.00;;;0.00;;
47225;SDS011;32965;64.142;-21.912;2022-11-25T06:21:20;0.80;;;0.10;;
47225;SDS011;32965;64.142;-21.912;2022-11-25T06:23:46;0.22;;;0.00;;
47225;SDS011;32965;64.142;-21.912;2022-11-25T06:26:15;0.10;;;0.00;;
47225;SDS011;32965;64.142;-21.912;2022-11-25T06:28:46;1.35;;;0.00;;
47225;SDS011;32965;64.142;-21.912;2022-11-25T06:31:16;0.00;;;0.00;;
47225;SDS011;32965;64.142;-21.912;2022-11-25T06:33:46;0.10;;;0.00;;
47225;SDS011;32965;64.142;-21.912;2022-11-25T06:36:13;0.15;;;0.08;;
47225;SDS011;32965;64.142;-21.912;2022-11-25T06:38:42;0.32;;;0.10;;
47225;SDS011;32965;64.142;-21.912;2022-11-25T06:41:11;0.35;;;0.03;;
47225;SDS011;32965;64.142;-21.912;2022-11-25T06:43:37;0.80;;;0.10;;
47225;SDS011;32965;64.142;-21.912;2022-11-25T06:46:07;0.00;;;0.00;;
47225;SDS011;32965;64.142;-21.912;2022-11-25T06:48:38;0.10;;;0.00;;
47225;SDS011;32965;64.142;-21.912;2022-11-25T06:51:05;0.20;;;0.10;;
47225;SDS011;32965;64.142;-21.912;2022-11-25T06:53:34;0.65;;;0.10;;
47225;SDS011;32965;64.142;-21.912;2022-11-25T06:56:04;0.10;;;0.08;;
47225;SDS011;32965;64.142;-21.912;2022-11-25T06:58:41;0.30;;;0.10;;
47225;SDS011;32965;64.142;-21.912;2022-11-25T07:01:18;0.35;;;0.10;;
47225;SDS011;32965;64.142;-21.912;2022-11-25T07:03:46;0.40;;;0.10;;
47225;SDS011;32965;64.142;-21.912;2022-11-25T07:06:15;0.17;;;0.13;;
47225;SDS011;32965;64.142;-21.912;2022-11-25T07:08:43;0.10;;;0.08;;
47225;SDS011;32965;64.142;-21.912;2022-11-25T07:11:17;0.43;;;0.00;;
47225;SDS011;32965;64.142;-21.912;2022-11-25T07:13:49;0.10;;;0.10;;
47225;SDS011;32965;64.142;-21.912;2022-11-25T07:16:17;0.20;;;0.00;;
47225;SDS011;32965;64.142;-21.912;2022-11-25T07:18:43;0.63;;;0.30;;
47225;SDS011;32965;64.142;-21.912;2022-11-25T07:23:36;1.17;;;0.20;;
47225;SDS011;32965;64.142;-21.912;2022-11-25T07:26:10;0.30;;;0.00;;
47225;SDS011;32965;64.142;-21.912;2022-11-25T07:28:37;0.10;;;0.10;;
47225;SDS011;32965;64.142;-21.912;2022-11-25T07:31:14;1.35;;;0.20;;
47225;SDS011;32965;64.142;-21.912;2022-11-25T07:33:55;0.10;;;0.08;;
47225;SDS011;32965;64.142;-21.912;2022-11-25T07:36:22;0.10;;;0.00;;
47225;SDS011;32965;64.142;-21.912;2022-11-25T07:38:48;0.22;;;0.03;;
47225;SDS011;32965;64.142;-21.912;2022-11-25T07:41:19;1.75;;;0.10;;
47225;SDS011;32965;64.142;-21.912;2022-11-25T07:43:47;1.88;;;0.15;;
47225;SDS011;32965;64.142;-21.912;2022-11-25T07:46:19;1.65;;;0.10;;
47225;SDS011;32965;64.142;-21.912;2022-11-25T07:48:47;0.70;;;0.20;;
47225;SDS011;32965;64.142;-21.912;2022-11-25T07:51:17;1.38;;;0.10;;
47225;SDS011;32965;64.142;-21.912;2022-11-25T07:53:45;2.95;;;0.20;;
47225;SDS011;32965;64.142;-21.912;2022-11-25T07:56:11;0.55;;;0.45;;
47225;SDS011;32965;64.142;-21.912;2022-11-25T07:58:38;0.40;;;0.20;;
47225;SDS011;32965;64.142;-21.912;2022-11-25T08:01:05;1.15;;;0.30;;
47225;SDS011;32965;64.142;-21.912;2022-11-25T08:03:33;1.10;;;0.20;;
47225;SDS011;32965;64.142;-21.912;2022-11-25T08:06:00;2.60;;;0.30;;
47225;SDS011;32965;64.142;-21.912;2022-11-25T08:08:27;3.88;;;0.75;;
47225;SDS011;32965;64.142;-21.912;2022-11-25T08:10:53;1.58;;;0.32;;
47225;SDS011;32965;64.142;-21.912;2022-11-25T08:13:19;0.70;;;0.30;;
47225;SDS011;32965;64.142;-21.912;2022-11-25T08:15:44;3.03;;;0.45;;
47225;SDS011;32965;64.142;-21.912;2022-11-25T08:18:10;2.83;;;0.20;;
47225;SDS011;32965;64.142;-21.912;2022-11-25T08:20:36;4.32;;;0.30;;
47225;SDS011;32965;64.142;-21.912;2022-11-25T08:23:01;0.65;;;0.25;;
47225;SDS011;32965;64.142;-21.912;2022-11-25T08:25:27;1.48;;;0.10;;
47225;SDS011;32965;64.142;-21.912;2022-11-25T08:27:55;1.70;;;0.20;;
47225;SDS011;32965;64.142;-21.912;2022-11-25T08:30:24;1.15;;;0.20;;
47225;SDS011;32965;64.142;-21.912;2022-11-25T08:32:51;2.20;;;0.20;;
47225;SDS011;32965;64.142;-21.912;2022-11-25T08:35:17;2.17;;;0.25;;
47225;SDS011;32965;64.142;-21.912;2022-11-25T08:37:43;1.25;;;0.70;;
47225;SDS011;32965;64.142;-21.912;2022-11-25T08:40:10;2.63;;;0.30;;
47225;SDS011;32965;64.142;-21.912;2022-11-25T08:42:36;2.55;;;0.22;;
47225;SDS011;32965;64.142;-21.912;2022-11-25T08:45:04;1.65;;;0.20;;
47225;SDS011;32965;64.142;-21.912;2022-11-25T08:47:31;2.85;;;0.40;;
47225;SDS011;32965;64.142;-21.912;2022-11-25T08:49:57;3.40;;;0.28;;
47225;SDS011;32965;64.142;-21.912;2022-11-25T08:52:22;3.90;;;0.90;;
47225;SDS011;32965;64.142;-21.912;2022-11-25T08:54:48;1.60;;;0.32;;
47225;SDS011;32965;64.142;-21.912;2022-11-25T08:57:14;5.65;;;0.40;;
47225;SDS011;32965;64.142;-21.912;2022-11-25T08:59:40;3.13;;;0.57;;
47225;SDS011;32965;64.142;-21.912;2022-11-25T09:02:06;5.60;;;0.43;;
47225;SDS011;32965;64.142;-21.912;2022-11-25T09:04:33;2.33;;;0.20;;
47225;SDS011;32965;64.142;-21.912;2022-11-25T09:06:59;3.22;;;0.30;;
47225;SDS011;32965;64.142;-21.912;2022-11-25T09:09:27;4.88;;;0.60;;
47225;SDS011;32965;64.142;-21.912;2022-11-25T09:11:53;0.35;;;0.00;;
47225;SDS011;32965;64.142;-21.912;2022-11-25T09:14:18;1.30;;;0.10;;
47225;SDS011;32965;64.142;-21.912;2022-11-25T09:16:44;1.63;;;0.30;;
47225;SDS011;32965;64.142;-21.912;2022-11-25T09:19:10;0.38;;;0.20;;
47225;SDS011;32965;64.142;-21.912;2022-11-25T09:21:36;6.63;;;0.20;;
47225;SDS011;32965;64.142;-21.912;2022-11-25T09:24:01;3.00;;;0.13;;
47225;SDS011;32965;64.142;-21.912;2022-11-25T09:26:28;5.28;;;0.30;;
47225;SDS011;32965;64.142;-21.912;2022-11-25T09:28:59;3.47;;;0.20;;
47225;SDS011;32965;64.142;-21.912;2022-11-25T09:31:25;1.98;;;0.20;;
47225;SDS011;32965;64.142;-21.912;2022-11-25T09:33:51;1.55;;;0.10;;
47225;SDS011;32965;64.142;-21.912;2022-11-25T09:36:17;4.22;;;0.22;;
47225;SDS011;32965;64.142;-21.912;2022-11-25T09:38:43;2.50;;;0.30;;
47225;SDS011;32965;64.142;-21.912;2022-11-25T09:52:43;1.92;;;0.25;;
47225;SDS011;32965;64.142;-21.912;2022-11-25T09:58:12;2.55;;;0.13;;
47225;SDS011;32965;64.142;-21.912;2022-11-25T10:00:49;0.75;;;0.10;;
47225;SDS011;32965;64.142;-21.912;2022-11-25T10:08:44;1.25;;;0.28;;
47225;SDS011;32965;64.142;-21.912;2022-11-25T10:21:47;2.60;;;0.20;;
47225;SDS011;32965;64.142;-21.912;2022-11-25T10:24:14;0.63;;;0.40;;
47225;SDS011;32965;64.142;-21.912;2022-11-25T10:26:49;0.38;;;0.10;;
47225;SDS011;32965;64.142;-21.912;2022-11-25T10:29:24;1.63;;;0.10;;
47225;SDS011;32965;64.142;-21.912;2022-11-25T10:31:53;0.15;;;0.00;;
47225;SDS011;32965;64.142;-21.912;2022-11-25T10:36:56;3.25;;;0.32;;
47225;SDS011;32965;64.142;-21.912;2022-11-25T10:39:26;0.25;;;0.05;;
47225;SDS011;32965;64.142;-21.912;2022-11-25T10:44:36;2.38;;;0.32;;
47225;SDS011;32965;64.142;-21.912;2022-11-25T10:50:03;4.25;;;0.50;;
47225;SDS011;32965;64.142;-21.912;2022-11-25T10:52:59;3.42;;;0.20;;
47225;SDS011;32965;64.142;-21.912;2022-11-25T10:55:34;5.68;;;0.30;;
47225;SDS011;32965;64.142;-21.912;2022-11-25T10:58:20;7.55;;;0.47;;
47225;SDS011;32965;64.142;-21.912;2022-11-25T11:00:48;6.82;;;0.43;;
47225;SDS011;32965;64.142;-21.912;2022-11-25T11:03:27;3.42;;;0.40;;
47225;SDS011;32965;64.142;-21.912;2022-11-25T11:05:53;1.58;;;0.10;;
47225;SDS011;32965;64.142;-21.912;2022-11-25T11:10:47;1.70;;;0.20;;
47225;SDS011;32965;64.142;-21.912;2022-11-25T11:13:42;3.30;;;0.50;;
47225;SDS011;32965;64.142;-21.912;2022-11-25T11:16:31;5.90;;;0.38;;
47225;SDS011;32965;64.142;-21.912;2022-11-25T11:19:00;1.55;;;0.32;;
47225;SDS011;32965;64.142;-21.912;2022-11-25T11:21:34;2.40;;;0.85;;
47225;SDS011;32965;64.142;-21.912;2022-11-25T11:24:14;5.05;;;0.80;;
47225;SDS011;32965;64.142;-21.912;2022-11-25T11:26:46;2.20;;;1.00;;
47225;SDS011;32965;64.142;-21.912;2022-11-25T11:29:26;5.82;;;0.93;;
47225;SDS011;32965;64.142;-21.912;2022-11-25T11:31:56;4.57;;;1.02;;
47225;SDS011;32965;64.142;-21.912;2022-11-25T11:34:46;2.45;;;0.90;;
47225;SDS011;32965;64.142;-21.912;2022-11-25T11:50:34;7.97;;;2.25;;
47225;SDS011;32965;64.142;-21.912;2022-11-25T12:01:31;8.90;;;1.52;;
47225;SDS011;32965;64.142;-21.912;2022-11-25T12:04:07;5.43;;;1.08;;
47225;SDS011;32965;64.142;-21.912;2022-11-25T12:06:41;9.13;;;1.00;;
47225;SDS011;32965;64.142;-21.912;2022-11-25T12:09:20;5.97;;;1.00;;
47225;SDS011;32965;64.142;-21.912;2022-11-25T12:11:53;5.35;;;1.00;;
47225;SDS011;32965;64.142;-21.912;2022-11-25T12:15:08;4.45;;;1.00;;
47225;SDS011;32965;64.142;-21.912;2022-11-25T12:17:20;5.10;;;0.90;;
47225;SDS011;32965;64.142;-21.912;2022-11-25T12:22:33;6.53;;;1.13;;
47225;SDS011;32965;64.142;-21.912;2022-11-25T12:27:43;3.72;;;1.17;;
47225;SDS011;32965;64.142;-21.912;2022-11-25T12:30:11;5.57;;;0.93;;
47225;SDS011;32965;64.142;-21.912;2022-11-25T12:35:21;2.95;;;0.70;;
47225;SDS011;32965;64.142;-21.912;2022-11-25T12:38:09;5.90;;;1.20;;
47225;SDS011;32965;64.142;-21.912;2022-11-25T12:43:54;8.63;;;1.50;;
47225;SDS011;32965;64.142;-21.912;2022-11-25T12:48:58;6.57;;;1.20;;
47225;SDS011;32965;64.142;-21.912;2022-11-25T12:54:16;5.50;;;1.00;;
47225;SDS011;32965;64.142;-21.912;2022-11-25T13:02:44;4.20;;;0.90;;
47225;SDS011;32965;64.142;-21.912;2022-11-25T13:14:00;3.70;;;0.90;;
47225;SDS011;32965;64.142;-21.912;2022-11-25T13:16:41;2.85;;;0.80;;
47225;SDS011;32965;64.142;-21.912;2022-11-25T13:19:10;4.45;;;0.63;;
47225;SDS011;32965;64.142;-21.912;2022-11-25T13:21:54;4.57;;;0.85;;
47225;SDS011;32965;64.142;-21.912;2022-11-25T13:24:29;2.15;;;0.63;;
47225;SDS011;32965;64.142;-21.912;2022-11-25T13:26:59;6.70;;;0.70;;
47225;SDS011;32965;64.142;-21.912;2022-11-25T13:36:58;6.45;;;0.73;;
47225;SDS011;32965;64.142;-21.912;2022-11-25T13:39:32;3.97;;;0.73;;
47225;SDS011;32965;64.142;-21.912;2022-11-25T13:42:13;7.90;;;0.88;;
47225;SDS011;32965;64.142;-21.912;2022-11-25T13:47:21;4.88;;;0.80;;
47225;SDS011;32965;64.142;-21.912;2022-11-25T13:57:40;6.57;;;1.08;;
47225;SDS011;32965;64.142;-21.912;2022-11-25T14:02:45;2.05;;;0.80;;
47225;SDS011;32965;64.142;-21.912;2022-11-25T14:21:23;5.43;;;0.75;;
47225;SDS011;32965;64.142;-21.912;2022-11-25T14:26:50;8.25;;;1.00;;
47225;SDS011;32965;64.142;-21.912;2022-11-25T14:29:25;5.20;;;1.00;;
47225;SDS011;32965;64.142;-21.912;2022-11-25T14:34:55;9.00;;;0.90;;
47225;SDS011;32965;64.142;-21.912;2022-11-25T14:37:41;8.27;;;0.93;;
47225;SDS011;32965;64.142;-21.912;2022-11-25T14:40:14;7.75;;;1.20;;
47225;SDS011;32965;64.142;-21.912;2022-11-25T14:42:52;7.47;;;1.45;;
47225;SDS011;32965;64.142;-21.912;2022-11-25T14:47:50;6.53;;;1.27;;
47225;SDS011;32965;64.142;-21.912;2022-11-25T14:50:16;11.82;;;1.08;;
47225;SDS011;32965;64.142;-21.912;2022-11-25T14:52:42;7.65;;;1.27;;
47225;SDS011;32965;64.142;-21.912;2022-11-25T14:55:11;5.00;;;1.05;;
47225;SDS011;32965;64.142;-21.912;2022-11-25T14:57:38;7.60;;;1.83;;
47225;SDS011;32965;64.142;-21.912;2022-11-25T15:00:09;9.15;;;1.65;;
47225;SDS011;32965;64.142;-21.912;2022-11-25T15:02:39;7.97;;;1.40;;
47225;SDS011;32965;64.142;-21.912;2022-11-25T15:07:32;11.70;;;1.20;;
47225;SDS011;32965;64.142;-21.912;2022-11-25T15:09:58;5.38;;;1.48;;
47225;SDS011;32965;64.142;-21.912;2022-11-25T15:12:25;7.32;;;1.15;;
47225;SDS011;32965;64.142;-21.912;2022-11-25T15:14:55;8.55;;;1.10;;
47225;SDS011;32965;64.142;-21.912;2022-11-25T15:19:55;7.22;;;1.88;;
47225;SDS011;32965;64.142;-21.912;2022-11-25T15:22:23;7.78;;;1.08;;
47225;SDS011;32965;64.142;-21.912;2022-11-25T15:24:50;5.72;;;0.70;;
47225;SDS011;32965;64.142;-21.912;2022-11-25T15:27:26;5.65;;;0.95;;
47225;SDS011;32965;64.142;-21.912;2022-11-25T15:29:53;2.20;;;0.85;;
47225;SDS011;32965;64.142;-21.912;2022-11-25T15:32:27;1.15;;;0.20;;
47225;SDS011;32965;64.142;-21.912;2022-11-25T15:34:56;4.88;;;0.38;;
47225;SDS011;32965;64.142;-21.912;2022-11-25T15:37:24;2.33;;;0.30;;
47225;SDS011;32965;64.142;-21.912;2022-11-25T15:40:19;2.80;;;0.50;;
47225;SDS011;32965;64.142;-21.912;2022-11-25T15:42:54;2.90;;;0.50;;
47225;SDS011;32965;64.142;-21.912;2022-11-25T15:45:20;5.72;;;0.90;;
47225;SDS011;32965;64.142;-21.912;2022-11-25T15:47:46;7.57;;;0.82;;
47225;SDS011;32965;64.142;-21.912;2022-11-25T15:50:17;4.00;;;0.57;;
47225;SDS011;32965;64.142;-21.912;2022-11-25T15:52:47;7.72;;;0.98;;
47225;SDS011;32965;64.142;-21.912;2022-11-25T15:55:32;3.10;;;0.50;;
47225;SDS011;32965;64.142;-21.912;2022-11-25T15:58:05;3.90;;;0.82;;
47225;SDS011;32965;64.142;-21.912;2022-11-25T16:00:36;9.20;;;0.90;;
47225;SDS011;32965;64.142;-21.912;2022-11-25T16:03:02;8.93;;;0.90;;
47225;SDS011;32965;64.142;-21.912;2022-11-25T16:05:33;10.25;;;1.10;;
47225;SDS011;32965;64.142;-21.912;2022-11-25T16:08:01;7.03;;;0.80;;
47225;SDS011;32965;64.142;-21.912;2022-11-25T16:15:50;8.50;;;0.77;;
47225;SDS011;32965;64.142;-21.912;2022-11-25T16:18:21;5.85;;;0.90;;
47225;SDS011;32965;64.142;-21.912;2022-11-25T16:21:08;2.95;;;0.88;;
47225;SDS011;32965;64.142;-21.912;2022-11-25T16:31:57;4.25;;;0.98;;
47225;SDS011;32965;64.142;-21.912;2022-11-25T16:34:24;7.05;;;1.02;;
47225;SDS011;32965;64.142;-21.912;2022-11-25T16:36:50;8.25;;;1.52;;
47225;SDS011;32965;64.142;-21.912;2022-11-25T16:39:17;12.73;;;0.93;;
47225;SDS011;32965;64.142;-21.912;2022-11-25T16:41:45;7.63;;;0.88;;
47225;SDS011;32965;64.142;-21.912;2022-11-25T16:44:21;6.05;;;0.80;;
47225;SDS011;32965;64.142;-21.912;2022-11-25T16:46:48;3.03;;;0.90;;
47225;SDS011;32965;64.142;-21.912;2022-11-25T16:49:15;3.80;;;0.88;;
47225;SDS011;32965;64.142;-21.912;2022-11-25T16:51:42;7.30;;;1.05;;
47225;SDS011;32965;64.142;-21.912;2022-11-25T16:54:08;4.80;;;1.13;;
47225;SDS011;32965;64.142;-21.912;2022-11-25T16:56:36;5.88;;;1.02;;
47225;SDS011;32965;64.142;-21.912;2022-11-25T16:59:04;4.67;;;1.00;;
47225;SDS011;32965;64.142;-21.912;2022-11-25T17:01:31;4.03;;;0.57;;
47225;SDS011;32965;64.142;-21.912;2022-11-25T17:03:58;14.10;;;1.30;;
47225;SDS011;32965;64.142;-21.912;2022-11-25T17:06:25;6.82;;;1.13;;
47225;SDS011;32965;64.142;-21.912;2022-11-25T17:08:52;4.30;;;0.55;;
47225;SDS011;32965;64.142;-21.912;2022-11-25T17:11:19;6.20;;;0.73;;
47225;SDS011;32965;64.142;-21.912;2022-11-25T17:13:58;6.55;;;0.77;;
47225;SDS011;32965;64.142;-21.912;2022-11-25T17:16:27;4.20;;;0.43;;
47225;SDS011;32965;64.142;-21.912;2022-11-25T17:18:54;6.15;;;0.90;;